createdAt,value
2017-05-14T00:01:15.478Z,23.28
2017-05-14T00:02:15.095Z,23.28
2017-05-14T00:03:15.487Z,23.27
2017-05-14T00:04:14.982Z,23.37
2017-05-14T00:05:15.212Z,23.37
2017-05-14T00:06:15.151Z,23.32
2017-05-14T00:07:14.490Z,23.31
2017-05-14T00:08:15.026Z,23.34
2017-05-14T00:09:14.969Z,23.28
2017-05-14T00:10:14.906Z,23.37
2017-05-14T00:11:14.841Z,23.31
2017-05-14T00:12:14.482Z,23.28
2017-05-14T00:13:14.869Z,23.37
2017-05-14T00:14:14.663Z,23.28
2017-05-14T00:15:14.595Z,23.27
2017-05-14T00:16:14.532Z,23.27
2017-05-14T00:17:14.171Z,23.36
2017-05-14T00:18:14.359Z,23.27
2017-05-14T00:19:14.349Z,23.27
2017-05-14T00:20:14.291Z,23.32
2017-05-14T00:21:14.227Z,23.23
2017-05-14T00:22:13.860Z,23.25
2017-05-14T00:23:14.105Z,23.27
2017-05-14T00:24:14.040Z,23.25
2017-05-14T00:25:13.982Z,23.37
2017-05-14T00:26:13.921Z,23.28
2017-05-14T00:27:13.861Z,23.36
2017-05-14T00:28:13.796Z,23.25
2017-05-14T00:29:13.731Z,23.28
2017-05-14T00:30:13.675Z,23.27
2017-05-14T00:31:13.611Z,23.36
2017-05-14T00:32:13.545Z,23.25
2017-05-14T00:33:13.182Z,23.24
2017-05-14T00:34:13.434Z,23.27
2017-05-14T00:35:13.517Z,23.27
2017-05-14T00:36:13.300Z,23.37
2017-05-14T00:37:13.240Z,23.32
2017-05-14T00:38:13.175Z,23.34
2017-05-14T00:39:12.813Z,23.27
2017-05-14T00:40:13.000Z,23.37
2017-05-14T00:41:12.696Z,23.32
2017-05-14T00:42:12.629Z,23.31
2017-05-14T00:43:12.870Z,23.34
2017-05-14T00:44:12.809Z,23.25
2017-05-14T00:45:12.762Z,23.32
2017-05-14T00:46:12.684Z,23.39
2017-05-14T00:47:12.621Z,23.25
2017-05-14T00:48:12.558Z,23.32
2017-05-14T00:49:12.505Z,23.31
2017-05-14T00:50:12.436Z,23.34
2017-05-14T00:51:12.072Z,23.34
2017-05-14T00:52:11.706Z,23.25
2017-05-14T00:53:12.253Z,23.34
2017-05-14T00:54:11.889Z,23.36
2017-05-14T00:55:11.825Z,23.36
2017-05-14T00:56:11.766Z,23.37
2017-05-14T00:57:12.004Z,23.25
2017-05-14T00:58:11.943Z,23.36
2017-05-14T00:59:11.881Z,23.31
2017-05-14T01:00:11.517Z,23.32
2017-05-14T01:01:11.760Z,23.25
2017-05-14T01:02:11.698Z,23.36
2017-05-14T01:03:11.635Z,23.32
2017-05-14T01:04:11.574Z,23.25
2017-05-14T01:05:11.512Z,23.27
2017-05-14T01:06:11.451Z,23.37
2017-05-14T01:07:11.387Z,23.31
2017-05-14T01:08:11.030Z,23.25
2017-05-14T01:09:11.265Z,23.34
2017-05-14T01:10:11.202Z,23.39
2017-05-14T01:11:11.146Z,23.25
2017-05-14T01:12:11.092Z,23.36
2017-05-14T01:13:11.019Z,23.37
2017-05-14T01:14:10.958Z,23.41
2017-05-14T01:15:10.589Z,23.32
2017-05-14T01:16:12.034Z,23.24
2017-05-14T01:17:10.784Z,23.27
2017-05-14T01:18:10.406Z,23.36
2017-05-14T01:19:10.340Z,23.28
2017-05-14T01:20:10.283Z,23.32
2017-05-14T01:21:10.219Z,23.34
2017-05-14T01:22:10.155Z,23.25
2017-05-14T01:23:10.401Z,23.32
2017-05-14T01:24:10.350Z,23.27
2017-05-14T01:25:10.534Z,23.27
2017-05-14T01:26:10.220Z,23.31
2017-05-14T01:27:09.850Z,23.28
2017-05-14T01:28:10.090Z,23.23
2017-05-14T01:29:10.029Z,23.36
2017-05-14T01:30:09.665Z,23.31
2017-05-14T01:31:09.908Z,23.37
2017-05-14T01:32:09.849Z,23.27
2017-05-14T01:33:09.788Z,23.25
2017-05-14T01:34:09.721Z,23.28
2017-05-14T01:35:09.810Z,23.32
2017-05-14T01:36:09.602Z,23.27
2017-05-14T01:37:09.539Z,23.36
2017-05-14T01:38:09.476Z,23.37
2017-05-14T01:39:09.413Z,23.27
2017-05-14T01:40:09.202Z,23.27
2017-05-14T01:41:09.288Z,23.36
2017-05-14T01:42:09.226Z,23.36
2017-05-14T01:43:09.167Z,23.34
2017-05-14T01:44:09.110Z,23.25
2017-05-14T01:45:09.043Z,23.23
2017-05-14T01:46:08.999Z,23.32
2017-05-14T01:47:08.918Z,23.31
2017-05-14T01:48:08.860Z,23.27
2017-05-14T01:49:08.795Z,23.32
2017-05-14T01:50:08.732Z,23.36
2017-05-14T01:51:08.676Z,23.31
2017-05-14T01:52:08.306Z,23.25
2017-05-14T01:53:08.547Z,23.23
2017-05-14T01:54:08.486Z,23.34
2017-05-14T01:55:08.120Z,23.27
2017-05-14T01:56:08.062Z,23.31
2017-05-14T01:57:08.301Z,23.32
2017-05-14T01:58:08.240Z,23.32
2017-05-14T01:59:08.173Z,23.36
2017-05-14T02:00:08.116Z,23.28
2017-05-14T02:01:08.305Z,23.39
2017-05-14T02:02:07.699Z,23.31
2017-05-14T02:03:07.934Z,23.31
2017-05-14T02:04:07.868Z,23.32
2017-05-14T02:05:07.810Z,23.32
2017-05-14T02:06:07.443Z,23.36
2017-05-14T02:07:07.691Z,23.23
2017-05-14T02:08:07.633Z,23.36
2017-05-14T02:09:07.563Z,23.34
2017-05-14T02:10:07.493Z,23.36
2017-05-14T02:11:07.436Z,23.23
2017-05-14T02:12:07.373Z,23.31
2017-05-14T02:13:07.313Z,23.27
2017-05-14T02:14:07.256Z,23.32
2017-05-14T02:15:07.287Z,23.24
2017-05-14T02:16:07.129Z,23.25
2017-05-14T02:17:07.074Z,23.28
2017-05-14T02:18:07.003Z,23.23
2017-05-14T02:19:06.942Z,23.27
2017-05-14T02:20:06.879Z,23.27
2017-05-14T02:21:06.825Z,23.28
2017-05-14T02:22:06.761Z,23.32
2017-05-14T02:23:06.703Z,23.27
2017-05-14T02:24:06.632Z,23.32
2017-05-14T02:25:06.569Z,23.27
2017-05-14T02:26:06.514Z,23.31
2017-05-14T02:27:06.448Z,23.27
2017-05-14T02:28:06.395Z,23.36
2017-05-14T02:29:06.323Z,23.32
2017-05-14T02:30:06.267Z,23.36
2017-05-14T02:31:06.200Z,23.31
2017-05-14T02:32:05.848Z,23.34
2017-05-14T02:33:06.080Z,23.27
2017-05-14T02:34:05.711Z,23.36
2017-05-14T02:35:05.955Z,23.32
2017-05-14T02:36:05.904Z,23.28
2017-05-14T02:37:05.830Z,23.32
2017-05-14T02:38:05.768Z,23.27
2017-05-14T02:39:05.713Z,23.28
2017-05-14T02:40:05.797Z,23.27
2017-05-14T02:41:05.585Z,23.32
2017-05-14T02:42:05.524Z,23.27
2017-05-14T02:43:05.468Z,23.24
2017-05-14T02:44:05.400Z,23.31
2017-05-14T02:45:05.334Z,23.32
2017-05-14T02:46:05.281Z,23.31
2017-05-14T02:47:05.213Z,23.25
2017-05-14T02:48:05.153Z,23.27
2017-05-14T02:49:05.090Z,23.24
2017-05-14T02:50:05.031Z,23.34
2017-05-14T02:51:04.964Z,23.36
2017-05-14T02:52:04.904Z,23.34
2017-05-14T02:53:04.840Z,23.31
2017-05-14T02:54:04.784Z,23.24
2017-05-14T02:55:04.720Z,23.24
2017-05-14T02:56:04.666Z,23.27
2017-05-14T02:57:04.596Z,23.36
2017-05-14T02:58:04.534Z,23.24
2017-05-14T02:59:04.472Z,23.27
2017-05-14T03:00:04.411Z,23.31
2017-05-14T03:01:04.499Z,23.32
2017-05-14T03:02:04.295Z,23.21
2017-05-14T03:03:04.231Z,23.28
2017-05-14T03:04:04.173Z,23.34
2017-05-14T03:05:04.104Z,23.27
2017-05-14T03:06:04.043Z,23.31
2017-05-14T03:07:03.981Z,23.24
2017-05-14T03:08:03.915Z,23.24
2017-05-14T03:09:03.854Z,23.28
2017-05-14T03:10:03.849Z,23.27
2017-05-14T03:11:03.742Z,23.32
2017-05-14T03:12:03.671Z,23.23
2017-05-14T03:13:03.609Z,23.36
2017-05-14T03:14:03.544Z,23.39
2017-05-14T03:15:03.484Z,23.24
2017-05-14T03:16:03.425Z,23.32
2017-05-14T03:17:03.365Z,23.31
2017-05-14T03:18:03.299Z,23.24
2017-05-14T03:19:03.239Z,23.24
2017-05-14T03:20:03.227Z,23.2
2017-05-14T03:21:03.115Z,23.25
2017-05-14T03:22:03.052Z,23.25
2017-05-14T03:23:02.993Z,23.25
2017-05-14T03:24:02.929Z,23.27
2017-05-14T03:25:03.015Z,23.25
2017-05-14T03:26:02.803Z,23.21
2017-05-14T03:27:02.747Z,23.28
2017-05-14T03:28:02.682Z,23.32
2017-05-14T03:29:02.621Z,23.31
2017-05-14T03:30:02.559Z,23.27
2017-05-14T03:31:02.498Z,23.24
2017-05-14T03:32:02.437Z,23.31
2017-05-14T03:33:02.374Z,23.27
2017-05-14T03:34:02.312Z,23.25
2017-05-14T03:35:02.253Z,23.24
2017-05-14T03:36:02.187Z,23.32
2017-05-14T03:37:02.127Z,23.28
2017-05-14T03:38:02.070Z,23.24
2017-05-14T03:39:02.011Z,23.27
2017-05-14T03:40:01.941Z,23.25
2017-05-14T03:41:01.581Z,23.24
2017-05-14T03:42:01.816Z,23.27
2017-05-14T03:43:01.755Z,23.37
2017-05-14T03:44:01.697Z,23.32
2017-05-14T03:45:01.630Z,23.32
2017-05-14T03:46:01.570Z,23.27
2017-05-14T03:47:01.511Z,23.27
2017-05-14T03:48:01.450Z,23.32
2017-05-14T03:49:01.380Z,23.18
2017-05-14T03:50:01.323Z,23.31
2017-05-14T03:51:01.291Z,23.24
2017-05-14T03:52:01.198Z,23.27
2017-05-14T03:53:00.837Z,23.27
2017-05-14T03:54:01.076Z,23.36
2017-05-14T03:55:01.021Z,23.32
2017-05-14T03:56:00.954Z,23.31
2017-05-14T03:57:00.889Z,23.32
2017-05-14T03:58:00.528Z,23.27
2017-05-14T03:59:00.765Z,23.25
2017-05-14T04:00:00.704Z,23.36
2017-05-14T04:01:00.660Z,23.34
2017-05-14T04:02:00.580Z,23.24
2017-05-14T04:03:00.518Z,23.32
2017-05-14T04:04:00.463Z,23.23
2017-05-14T04:05:00.392Z,23.32
2017-05-14T04:06:00.331Z,23.34
2017-05-14T04:07:00.272Z,23.28
2017-05-14T04:08:00.210Z,23.31
2017-05-14T04:09:00.149Z,23.25
2017-05-14T04:10:00.090Z,23.27
2017-05-14T04:11:00.028Z,23.32
2017-05-14T04:11:59.960Z,23.36
2017-05-14T04:12:59.900Z,23.27
2017-05-14T04:13:59.844Z,23.37
2017-05-14T04:14:59.781Z,23.23
2017-05-14T04:15:59.718Z,23.34
2017-05-14T04:16:59.656Z,23.23
2017-05-14T04:17:59.593Z,23.32
2017-05-14T04:18:59.535Z,23.27
2017-05-14T04:19:59.470Z,23.27
2017-05-14T04:20:59.405Z,23.24
2017-05-14T04:21:59.344Z,23.25
2017-05-14T04:22:59.280Z,23.21
2017-05-14T04:23:58.920Z,23.31
2017-05-14T04:24:59.159Z,23.24
2017-05-14T04:25:59.098Z,23.27
2017-05-14T04:26:59.036Z,23.27
2017-05-14T04:27:58.974Z,23.24
2017-05-14T04:28:58.912Z,23.31
2017-05-14T04:29:58.849Z,23.31
2017-05-14T04:30:58.788Z,23.25
2017-05-14T04:31:58.727Z,23.37
2017-05-14T04:32:58.662Z,23.27
2017-05-14T04:33:58.662Z,23.36
2017-05-14T04:34:58.539Z,23.25
2017-05-14T04:35:58.581Z,23.24
2017-05-14T04:36:58.116Z,23.31
2017-05-14T04:37:58.354Z,23.39
2017-05-14T04:38:57.997Z,23.32
2017-05-14T04:39:57.936Z,23.32
2017-05-14T04:40:58.270Z,23.31
2017-05-14T04:41:58.111Z,23.32
2017-05-14T04:42:57.748Z,23.24
2017-05-14T04:43:57.989Z,23.28
2017-05-14T04:44:57.932Z,23.32
2017-05-14T04:45:57.860Z,23.27
2017-05-14T04:46:57.798Z,23.31
2017-05-14T04:47:57.744Z,23.27
2017-05-14T04:48:57.680Z,23.25
2017-05-14T04:49:57.319Z,23.31
2017-05-14T04:50:57.708Z,23.31
2017-05-14T04:51:57.493Z,23.25
2017-05-14T04:52:57.434Z,23.32
2017-05-14T04:53:57.367Z,23.25
2017-05-14T04:54:57.309Z,23.34
2017-05-14T04:55:57.495Z,23.23
2017-05-14T04:56:57.182Z,23.27
2017-05-14T04:57:57.126Z,23.31
2017-05-14T04:58:57.069Z,23.27
2017-05-14T04:59:56.997Z,23.28
2017-05-14T05:00:57.040Z,23.34
2017-05-14T05:01:56.870Z,23.27
2017-05-14T05:02:56.820Z,23.31
2017-05-14T05:03:56.748Z,23.34
2017-05-14T05:04:56.688Z,23.36
2017-05-14T05:06:11.474Z,23.28
2017-05-14T05:06:56.565Z,23.34
2017-05-14T05:07:56.504Z,23.36
2017-05-14T05:08:56.438Z,23.36
2017-05-14T05:09:56.377Z,23.31
2017-05-14T05:10:56.361Z,23.28
2017-05-14T05:11:56.255Z,23.34
2017-05-14T05:12:56.194Z,23.34
2017-05-14T05:13:56.131Z,23.23
2017-05-14T05:14:56.071Z,23.25
2017-05-14T05:15:56.010Z,23.32
2017-05-14T05:16:56.193Z,23.25
2017-05-14T05:17:55.886Z,23.28
2017-05-14T05:18:55.824Z,23.36
2017-05-14T05:19:55.758Z,23.31
2017-05-14T05:20:55.698Z,23.31
2017-05-14T05:21:55.637Z,23.39
2017-05-14T05:22:55.577Z,23.36
2017-05-14T05:23:55.514Z,23.28
2017-05-14T05:24:55.452Z,23.34
2017-05-14T05:25:55.185Z,23.31
2017-05-14T05:26:55.026Z,23.37
2017-05-14T05:27:54.964Z,23.37
2017-05-14T05:28:55.203Z,23.36
2017-05-14T05:29:55.144Z,23.31
2017-05-14T05:30:55.179Z,23.34
2017-05-14T05:31:54.719Z,23.28
2017-05-14T05:32:54.955Z,23.34
2017-05-14T05:33:55.106Z,23.34
2017-05-14T05:34:54.843Z,23.39
2017-05-14T05:35:54.471Z,23.36
2017-05-14T05:36:54.710Z,23.36
2017-05-14T05:37:54.651Z,23.39
2017-05-14T05:38:54.585Z,23.32
2017-05-14T05:39:54.523Z,23.36
2017-05-14T05:40:54.463Z,23.34
2017-05-14T05:41:54.399Z,23.34
2017-05-14T05:42:54.346Z,23.28
2017-05-14T05:43:54.275Z,23.34
2017-05-14T05:44:54.215Z,23.27
2017-05-14T05:45:54.152Z,23.27
2017-05-14T05:46:54.145Z,23.31
2017-05-14T05:47:54.027Z,23.31
2017-05-14T05:48:53.968Z,23.31
2017-05-14T05:49:53.906Z,23.36
2017-05-14T05:50:54.092Z,23.27
2017-05-14T05:51:53.481Z,23.28
2017-05-14T05:52:53.739Z,23.27
2017-05-14T05:53:53.659Z,23.23
2017-05-14T05:54:53.598Z,23.32
2017-05-14T05:55:53.946Z,23.27
2017-05-14T05:56:53.475Z,23.27
2017-05-14T05:57:53.423Z,23.31
2017-05-14T05:58:53.347Z,23.27
2017-05-14T05:59:53.287Z,23.31
2017-05-14T06:00:53.339Z,23.28
2017-05-14T06:01:53.168Z,23.28
2017-05-14T06:02:53.105Z,23.32
2017-05-14T06:03:53.045Z,23.34
2017-05-14T06:04:52.676Z,23.28
2017-05-14T06:05:52.715Z,23.27
2017-05-14T06:06:52.857Z,23.39
2017-05-14T06:07:52.805Z,23.28
2017-05-14T06:08:52.734Z,23.28
2017-05-14T06:09:52.678Z,23.32
2017-05-14T06:10:52.621Z,23.34
2017-05-14T06:11:52.749Z,23.31
2017-05-14T06:12:52.494Z,23.39
2017-05-14T06:13:52.433Z,23.28
2017-05-14T06:14:52.367Z,23.28
2017-05-14T06:15:52.302Z,23.34
2017-05-14T06:16:52.240Z,23.27
2017-05-14T06:17:52.176Z,23.28
2017-05-14T06:18:52.175Z,23.31
2017-05-14T06:19:52.055Z,23.28
2017-05-14T06:20:51.990Z,23.32
2017-05-14T06:21:51.931Z,23.36
2017-05-14T06:22:51.870Z,23.31
2017-05-14T06:23:51.807Z,23.31
2017-05-14T06:24:51.746Z,23.28
2017-05-14T06:25:51.682Z,23.23
2017-05-14T06:26:51.629Z,23.27
2017-05-14T06:27:51.256Z,23.37
2017-05-14T06:28:51.501Z,23.39
2017-05-14T06:29:51.136Z,23.27
2017-05-14T06:30:51.375Z,23.37
2017-05-14T06:31:51.317Z,23.28
2017-05-14T06:32:51.256Z,23.25
2017-05-14T06:33:51.196Z,23.31
2017-05-14T06:34:51.128Z,23.32
2017-05-14T06:35:51.114Z,23.27
2017-05-14T06:36:51.008Z,23.36
2017-05-14T06:37:50.940Z,23.31
2017-05-14T06:38:50.881Z,23.25
2017-05-14T06:39:50.818Z,23.34
2017-05-14T06:40:50.758Z,23.25
2017-05-14T06:41:50.700Z,23.36
2017-05-14T06:42:50.637Z,23.31
2017-05-14T06:43:50.573Z,23.31
2017-05-14T06:44:50.522Z,23.4
2017-05-14T06:45:50.449Z,23.32
2017-05-14T06:46:50.388Z,23.37
2017-05-14T06:47:50.325Z,23.28
2017-05-14T06:48:50.264Z,23.32
2017-05-14T06:49:50.208Z,23.34
2017-05-14T06:50:50.390Z,23.41
2017-05-14T06:51:50.079Z,23.37
2017-05-14T06:52:50.278Z,23.25
2017-05-14T06:53:49.654Z,23.36
2017-05-14T06:54:49.898Z,23.31
2017-05-14T06:55:49.830Z,23.34
2017-05-14T06:56:49.769Z,23.37
2017-05-14T06:57:49.709Z,23.27
2017-05-14T06:58:49.655Z,23.36
2017-05-14T06:59:49.582Z,23.37
2017-05-14T07:00:49.850Z,23.36
2017-05-14T07:01:49.460Z,23.36
2017-05-14T07:02:49.498Z,23.37
2017-05-14T07:03:49.337Z,23.41
2017-05-14T07:04:48.973Z,23.41
2017-05-14T07:05:49.218Z,23.47
2017-05-14T07:06:49.151Z,23.37
2017-05-14T07:07:48.786Z,23.43
2017-05-14T07:08:48.727Z,23.37
2017-05-14T07:09:48.668Z,23.34
2017-05-14T07:10:48.602Z,23.37
2017-05-14T07:11:48.845Z,23.46
2017-05-14T07:12:48.781Z,23.36
2017-05-14T07:13:49.919Z,23.39
2017-05-14T07:14:48.659Z,23.46
2017-05-14T07:15:48.594Z,23.39
2017-05-14T07:16:48.536Z,23.46
2017-05-14T07:17:48.477Z,23.44
2017-05-14T07:18:48.411Z,23.44
2017-05-14T07:19:48.047Z,23.4
2017-05-14T07:20:48.287Z,23.41
2017-05-14T07:21:48.229Z,23.44
2017-05-14T07:22:48.167Z,23.34
2017-05-14T07:23:48.107Z,23.43
2017-05-14T07:24:48.048Z,23.48
2017-05-14T07:25:48.026Z,23.47
2017-05-14T07:26:47.941Z,23.46
2017-05-14T07:27:47.870Z,23.44
2017-05-14T07:28:47.793Z,23.44
2017-05-14T07:29:47.732Z,23.46
2017-05-14T07:30:47.369Z,23.48
2017-05-14T07:31:47.609Z,23.46
2017-05-14T07:32:47.548Z,23.39
2017-05-14T07:33:47.484Z,23.44
2017-05-14T07:34:47.426Z,23.47
2017-05-14T07:35:47.361Z,23.44
2017-05-14T07:36:47.304Z,23.41
2017-05-14T07:37:47.248Z,23.44
2017-05-14T07:38:47.176Z,23.48
2017-05-14T07:39:47.116Z,23.44
2017-05-14T07:40:47.061Z,23.43
2017-05-14T07:41:46.997Z,23.46
2017-05-14T07:42:46.930Z,23.41
2017-05-14T07:43:46.877Z,23.44
2017-05-14T07:44:46.506Z,23.44
2017-05-14T07:45:46.745Z,23.44
2017-05-14T07:46:46.686Z,23.4
2017-05-14T07:47:46.619Z,23.43
2017-05-14T07:48:46.558Z,23.4
2017-05-14T07:49:46.197Z,23.46
2017-05-14T07:50:46.438Z,23.47
2017-05-14T07:51:46.377Z,23.46
2017-05-14T07:52:46.008Z,23.43
2017-05-14T07:53:46.253Z,23.48
2017-05-14T07:54:46.191Z,23.41
2017-05-14T07:55:46.138Z,23.43
2017-05-14T07:56:46.072Z,23.44
2017-05-14T07:57:46.008Z,23.44
2017-05-14T07:58:45.945Z,23.48
2017-05-14T07:59:45.887Z,23.41
2017-05-14T08:00:46.125Z,23.55
2017-05-14T08:01:45.762Z,23.51
2017-05-14T08:02:45.698Z,23.55
2017-05-14T08:03:45.636Z,23.47
2017-05-14T08:04:45.579Z,23.48
2017-05-14T08:05:45.517Z,23.61
2017-05-14T08:06:45.453Z,23.56
2017-05-14T08:07:45.387Z,23.55
2017-05-14T08:08:45.026Z,23.48
2017-05-14T08:09:45.273Z,23.44
2017-05-14T08:10:45.207Z,23.61
2017-05-14T08:11:45.142Z,23.54
2017-05-14T08:12:45.090Z,23.51
2017-05-14T08:13:44.717Z,23.54
2017-05-14T08:14:44.959Z,23.56
2017-05-14T08:15:44.597Z,23.58
2017-05-14T08:16:44.839Z,23.46
2017-05-14T08:17:44.775Z,23.51
2017-05-14T08:18:44.711Z,23.56
2017-05-14T08:19:44.656Z,23.44
2017-05-14T08:20:44.588Z,23.55
2017-05-14T08:21:44.524Z,23.47
2017-05-14T08:22:44.467Z,23.55
2017-05-14T08:23:44.403Z,23.55
2017-05-14T08:24:44.341Z,23.55
2017-05-14T08:25:44.286Z,23.55
2017-05-14T08:26:44.219Z,23.54
2017-05-14T08:27:44.159Z,23.55
2017-05-14T08:28:44.095Z,23.55
2017-05-14T08:29:43.780Z,23.54
2017-05-14T08:30:44.223Z,23.55
2017-05-14T08:31:43.914Z,23.58
2017-05-14T08:32:43.858Z,23.58
2017-05-14T08:33:43.794Z,23.46
2017-05-14T08:34:43.119Z,23.56
2017-05-14T08:35:43.668Z,23.55
2017-05-14T08:36:43.602Z,23.55
2017-05-14T08:37:43.555Z,23.51
2017-05-14T08:38:43.481Z,23.51
2017-05-14T08:39:43.119Z,23.56
2017-05-14T08:40:43.055Z,23.51
2017-05-14T08:41:43.301Z,23.5
2017-05-14T08:42:42.935Z,23.5
2017-05-14T08:43:42.874Z,23.5
2017-05-14T08:44:42.805Z,23.5
2017-05-14T08:45:43.049Z,23.56
2017-05-14T08:46:42.689Z,23.51
2017-05-14T08:47:42.923Z,23.51
2017-05-14T08:48:42.860Z,23.51
2017-05-14T08:49:42.806Z,23.51
2017-05-14T08:50:42.739Z,23.56
2017-05-14T08:51:42.684Z,23.54
2017-05-14T08:52:42.316Z,23.56
2017-05-14T08:53:42.255Z,23.5
2017-05-14T08:54:42.190Z,23.54
2017-05-14T08:55:42.430Z,23.56
2017-05-14T08:56:42.371Z,23.54
2017-05-14T08:57:42.310Z,23.58
2017-05-14T08:58:42.247Z,23.48
2017-05-14T08:59:42.183Z,23.54
2017-05-14T09:00:42.225Z,23.55
2017-05-14T09:01:42.063Z,23.51
2017-05-14T09:02:41.697Z,23.61
2017-05-14T09:03:41.939Z,23.51
2017-05-14T09:04:41.879Z,23.58
2017-05-14T09:05:41.816Z,23.48
2017-05-14T09:06:41.754Z,23.56
2017-05-14T09:07:41.708Z,23.48
2017-05-14T09:08:41.635Z,23.48
2017-05-14T09:09:41.575Z,23.5
2017-05-14T09:10:41.511Z,23.48
2017-05-14T09:11:41.445Z,23.47
2017-05-14T09:12:41.390Z,23.51
2017-05-14T09:13:41.325Z,23.5
2017-05-14T09:14:41.262Z,23.65
2017-05-14T09:15:41.199Z,23.54
2017-05-14T09:16:40.838Z,23.58
2017-05-14T09:17:40.777Z,23.55
2017-05-14T09:18:40.713Z,23.58
2017-05-14T09:19:40.955Z,23.65
2017-05-14T09:20:40.593Z,23.55
2017-05-14T09:21:40.833Z,23.59
2017-05-14T09:22:40.469Z,23.55
2017-05-14T09:23:40.708Z,23.63
2017-05-14T09:24:40.343Z,23.62
2017-05-14T09:25:39.984Z,23.59
2017-05-14T09:26:40.219Z,23.58
2017-05-14T09:27:40.164Z,23.62
2017-05-14T09:28:40.098Z,23.61
2017-05-14T09:29:40.036Z,23.62
2017-05-14T09:30:40.279Z,23.62
2017-05-14T09:31:40.215Z,23.62
2017-05-14T09:32:40.157Z,23.58
2017-05-14T09:33:39.792Z,23.61
2017-05-14T09:34:40.034Z,23.61
2017-05-14T09:35:39.673Z,23.62
2017-05-14T09:36:39.912Z,23.59
2017-05-14T09:37:39.242Z,23.61
2017-05-14T09:38:39.788Z,23.63
2017-05-14T09:39:39.728Z,23.59
2017-05-14T09:40:39.811Z,23.65
2017-05-14T09:41:39.597Z,23.68
2017-05-14T09:42:39.537Z,23.66
2017-05-14T09:43:39.479Z,23.62
2017-05-14T09:44:39.414Z,23.69
2017-05-14T09:45:39.157Z,23.69
2017-05-14T09:46:39.292Z,23.68
2017-05-14T09:47:39.235Z,23.66
2017-05-14T09:48:39.170Z,23.71
2017-05-14T09:49:39.106Z,23.69
2017-05-14T09:50:39.047Z,23.71
2017-05-14T09:51:38.983Z,23.77
2017-05-14T09:52:38.922Z,23.69
2017-05-14T09:53:38.865Z,23.77
2017-05-14T09:54:38.800Z,23.77
2017-05-14T09:55:38.438Z,23.74
2017-05-14T09:56:38.678Z,23.68
2017-05-14T09:57:38.619Z,23.71
2017-05-14T09:58:38.261Z,23.69
2017-05-14T09:59:38.190Z,23.76
2017-05-14T10:00:38.132Z,23.73
2017-05-14T10:01:38.373Z,23.73
2017-05-14T10:02:38.308Z,23.74
2017-05-14T10:03:38.247Z,23.77
2017-05-14T10:04:38.189Z,23.8
2017-05-14T10:05:38.336Z,23.73
2017-05-14T10:06:38.367Z,23.78
2017-05-14T10:07:38.004Z,23.77
2017-05-14T10:08:37.946Z,23.73
2017-05-14T10:09:37.880Z,23.76
2017-05-14T10:10:37.817Z,23.73
2017-05-14T10:11:37.859Z,23.77
2017-05-14T10:12:37.698Z,23.77
2017-05-14T10:13:37.633Z,23.78
2017-05-14T10:14:37.574Z,23.77
2017-05-14T10:15:37.761Z,23.81
2017-05-14T10:16:37.452Z,23.81
2017-05-14T10:17:37.386Z,23.81
2017-05-14T10:18:37.326Z,23.8
2017-05-14T10:19:37.267Z,23.8
2017-05-14T10:20:37.205Z,23.83
2017-05-14T10:21:37.147Z,23.84
2017-05-14T10:22:37.085Z,23.83
2017-05-14T10:23:37.020Z,23.78
2017-05-14T10:24:36.958Z,23.83
2017-05-14T10:25:36.595Z,23.83
2017-05-14T10:26:36.838Z,23.78
2017-05-14T10:27:36.792Z,23.87
2017-05-14T10:28:36.712Z,23.88
2017-05-14T10:29:36.353Z,23.69
2017-05-14T10:30:36.592Z,23.8
2017-05-14T10:31:36.527Z,23.83
2017-05-14T10:32:36.469Z,23.76
2017-05-14T10:33:36.103Z,23.84
2017-05-14T10:34:36.344Z,23.81
2017-05-14T10:35:36.281Z,23.84
2017-05-14T10:36:36.231Z,23.87
2017-05-14T10:37:36.258Z,23.8
2017-05-14T10:38:36.122Z,23.86
2017-05-14T10:39:36.041Z,23.78
2017-05-14T10:40:35.674Z,23.8
2017-05-14T10:41:35.921Z,23.87
2017-05-14T10:42:36.022Z,23.8
2017-05-14T10:43:35.996Z,23.87
2017-05-14T10:44:35.742Z,23.83
2017-05-14T10:45:35.667Z,23.96
2017-05-14T10:46:35.313Z,23.98
2017-05-14T10:47:35.546Z,23.83
2017-05-14T10:48:35.215Z,23.91
2017-05-14T10:49:35.426Z,23.84
2017-05-14T10:50:35.362Z,23.86
2017-05-14T10:51:35.300Z,23.86
2017-05-14T10:52:35.244Z,23.98
2017-05-14T10:53:35.177Z,23.91
2017-05-14T10:54:35.114Z,23.91
2017-05-14T10:55:35.068Z,23.86
2017-05-14T10:56:35.000Z,23.88
2017-05-14T10:57:34.932Z,23.8
2017-05-14T10:58:34.872Z,23.93
2017-05-14T10:59:34.808Z,23.95
2017-05-14T11:00:34.748Z,23.93
2017-05-14T11:01:34.689Z,23.83
2017-05-14T11:02:34.632Z,23.88
2017-05-14T11:03:34.564Z,23.91
2017-05-14T11:04:34.507Z,23.87
2017-05-14T11:05:34.443Z,23.87
2017-05-14T11:06:34.382Z,23.98
2017-05-14T11:07:34.317Z,23.92
2017-05-14T11:08:34.263Z,23.86
2017-05-14T11:09:34.196Z,23.84
2017-05-14T11:10:33.833Z,23.84
2017-05-14T11:11:34.079Z,23.92
2017-05-14T11:12:34.013Z,23.95
2017-05-14T11:13:33.954Z,23.95
2017-05-14T11:14:33.893Z,23.88
2017-05-14T11:15:33.828Z,23.91
2017-05-14T11:16:33.780Z,23.88
2017-05-14T11:17:33.705Z,23.87
2017-05-14T11:18:33.946Z,23.88
2017-05-14T11:19:33.590Z,23.96
2017-05-14T11:20:33.528Z,23.87
2017-05-14T11:21:33.461Z,23.91
2017-05-14T11:22:33.454Z,23.98
2017-05-14T11:23:33.592Z,23.87
2017-05-14T11:24:33.274Z,23.88
2017-05-14T11:25:33.218Z,23.84
2017-05-14T11:26:33.155Z,23.88
2017-05-14T11:27:33.098Z,23.88
2017-05-14T11:28:33.034Z,23.88
2017-05-14T11:29:32.973Z,23.92
2017-05-14T11:30:32.609Z,23.88
2017-05-14T11:31:32.852Z,23.95
2017-05-14T11:32:32.786Z,24.01
2017-05-14T11:33:32.728Z,23.92
2017-05-14T11:34:32.675Z,23.92
2017-05-14T11:35:32.957Z,23.96
2017-05-14T11:36:32.546Z,23.98
2017-05-14T11:37:32.483Z,23.99
2017-05-14T11:38:32.423Z,23.99
2017-05-14T11:39:32.358Z,24.06
2017-05-14T11:40:32.299Z,24.03
2017-05-14T11:41:31.931Z,23.98
2017-05-14T11:42:32.176Z,24.05
2017-05-14T11:43:32.114Z,24.02
2017-05-14T11:44:32.054Z,24.03
2017-05-14T11:45:31.989Z,24.05
2017-05-14T11:46:31.930Z,23.99
2017-05-14T11:47:31.871Z,23.99
2017-05-14T11:48:31.816Z,24.05
2017-05-14T11:49:31.744Z,24.05
2017-05-14T11:50:31.682Z,24.06
2017-05-14T11:51:31.622Z,24.05
2017-05-14T11:52:31.562Z,24.05
2017-05-14T11:53:31.502Z,24.1
2017-05-14T11:54:31.441Z,24.05
2017-05-14T11:55:31.383Z,24.08
2017-05-14T11:56:31.316Z,23.95
2017-05-14T11:57:31.256Z,23.95
2017-05-14T11:58:31.194Z,23.95
2017-05-14T11:59:31.134Z,24.08
2017-05-14T12:00:31.070Z,24.05
2017-05-14T12:01:31.023Z,24.06
2017-05-14T12:02:30.952Z,24.03
2017-05-14T12:03:30.583Z,23.95
2017-05-14T12:04:30.833Z,24.01
2017-05-14T12:05:30.769Z,24.06
2017-05-14T12:06:30.701Z,24.03
2017-05-14T12:07:30.645Z,24.05
2017-05-14T12:08:30.277Z,23.98
2017-05-14T12:09:30.521Z,23.93
2017-05-14T12:10:30.560Z,23.98
2017-05-14T12:11:30.399Z,24.02
2017-05-14T12:12:30.343Z,23.99
2017-05-14T12:13:29.670Z,23.92
2017-05-14T12:14:29.909Z,24.05
2017-05-14T12:15:30.404Z,24.05
2017-05-14T12:16:30.092Z,24.11
2017-05-14T12:17:30.041Z,24.11
2017-05-14T12:18:29.969Z,24.03
2017-05-14T12:19:29.905Z,24.13
2017-05-14T12:20:29.848Z,23.98
2017-05-14T12:21:29.785Z,24.03
2017-05-14T12:22:29.424Z,24.06
2017-05-14T12:23:29.670Z,24.06
2017-05-14T12:24:29.599Z,23.98
2017-05-14T12:25:29.543Z,24.08
2017-05-14T12:26:29.486Z,23.98
2017-05-14T12:27:29.421Z,23.98
2017-05-14T12:28:29.357Z,24.1
2017-05-14T12:29:29.295Z,24.06
2017-05-14T12:30:29.231Z,24.05
2017-05-14T12:31:29.177Z,24.03
2017-05-14T12:32:29.113Z,24.03
2017-05-14T12:33:29.047Z,24.02
2017-05-14T12:34:28.995Z,24.05
2017-05-14T12:35:28.931Z,24.02
2017-05-14T12:36:28.870Z,24.01
2017-05-14T12:37:28.804Z,24.01
2017-05-14T12:38:28.745Z,24.06
2017-05-14T12:39:28.685Z,24.1
2017-05-14T12:40:28.623Z,24.02
2017-05-14T12:41:28.565Z,24.1
2017-05-14T12:42:28.504Z,24.02
2017-05-14T12:43:28.438Z,23.95
2017-05-14T12:44:28.381Z,23.96
2017-05-14T12:45:28.469Z,24.1
2017-05-14T12:46:28.256Z,24.03
2017-05-14T12:47:28.193Z,24.03
2017-05-14T12:48:28.134Z,23.95
2017-05-14T12:49:28.071Z,23.98
2017-05-14T12:50:28.274Z,24.03
2017-05-14T12:51:27.969Z,24.05
2017-05-14T12:52:27.593Z,24.13
2017-05-14T12:53:28.029Z,24.01